Time;durP1;ratioP1;P1;durP2;ratioP2;P2;SDS_P1;SDS_P2;PMS_P1;PMS_P2;Temp;Humidity;BMP_temperature;BMP_pressure;BME280_temperature;BME280_humidity;BME280_pressure;Samples;Min_cycle;Max_cycle;Signal;HPM_P1;HPM_P2
2023/05/18 00:00:13;;;;;;;4.07;2.20;;;12.00;49.80;;;;;;5031840;28;20045;-52
2023/05/18 00:02:47;;;;;;;4.82;2.50;;;12.00;49.90;;;;;;5024936;28;20064;-48
2023/05/18 00:05:14;;;;;;;2.40;1.92;;;12.00;49.90;;;;;;5046330;28;20048;-50
2023/05/18 00:07:41;;;;;;;4.50;2.30;;;11.90;49.80;;;;;;5047073;28;20056;-50
2023/05/18 00:10:10;;;;;;;3.22;2.08;;;11.90;49.90;;;;;;5029715;28;20049;-48
2023/05/18 00:12:40;;;;;;;3.30;2.22;;;11.80;49.90;;;;;;5027514;28;20407;-48
2023/05/18 00:15:07;;;;;;;4.85;2.17;;;11.80;49.90;;;;;;5044344;28;20080;-47
2023/05/18 00:17:35;;;;;;;5.15;1.88;;;11.80;50.10;;;;;;5049122;28;20029;-52
2023/05/18 00:20:03;;;;;;;3.30;2.25;;;11.70;50.20;;;;;;5041077;28;20041;-49
2023/05/18 00:22:32;;;;;;;2.47;2.05;;;11.70;50.40;;;;;;5048161;28;20095;-49
2023/05/18 00:24:59;;;;;;;4.32;2.10;;;11.70;50.50;;;;;;5042861;28;20562;-47
2023/05/18 00:27:26;;;;;;;3.35;2.22;;;11.70;50.70;;;;;;5049089;28;20146;-47
2023/05/18 00:29:52;;;;;;;4.47;2.05;;;11.60;50.60;;;;;;5016283;28;20136;-50
2023/05/18 00:32:19;;;;;;;4.43;2.20;;;11.60;50.60;;;;;;5029060;28;20052;-47
2023/05/18 00:34:46;;;;;;;5.13;2.20;;;11.60;50.70;;;;;;5036420;28;20116;-48
2023/05/18 00:37:13;;;;;;;4.82;1.80;;;11.60;50.70;;;;;;5043756;28;20580;-49
2023/05/18 00:39:39;;;;;;;2.67;2.05;;;11.50;50.70;;;;;;5035714;28;20064;-49
2023/05/18 00:42:06;;;;;;;3.80;2.05;;;11.50;50.70;;;;;;5011226;28;20040;-47
2023/05/18 00:44:33;;;;;;;3.97;2.53;;;11.50;50.80;;;;;;5016928;28;20479;-50
2023/05/18 00:47:00;;;;;;;2.80;1.77;;;11.40;50.70;;;;;;5052295;28;20041;-47
2023/05/18 00:49:27;;;;;;;3.95;2.15;;;11.40;51.00;;;;;;5032435;28;20049;-50
2023/05/18 00:51:55;;;;;;;4.07;2.47;;;11.40;51.60;;;;;;5033658;28;20112;-47
2023/05/18 00:54:24;;;;;;;4.20;2.33;;;11.40;51.10;;;;;;5026905;28;20045;-49
2023/05/18 00:56:52;;;;;;;4.60;2.30;;;11.30;51.00;;;;;;5034976;28;20037;-49
2023/05/18 00:59:20;;;;;;;2.90;1.80;;;11.30;51.10;;;;;;5042521;28;20041;-47
2023/05/18 01:01:48;;;;;;;1.98;1.80;;;11.30;51.10;;;;;;5014844;28;20049;-49
2023/05/18 01:04:15;;;;;;;2.63;2.03;;;11.20;51.20;;;;;;5019460;28;20077;-52
2023/05/18 01:06:42;;;;;;;5.13;2.30;;;11.20;51.30;;;;;;5050355;28;20120;-50
2023/05/18 01:09:12;;;;;;;4.05;2.17;;;11.20;51.30;;;;;;5025416;28;20144;-51
2023/05/18 01:11:48;;;;;;;2.25;1.85;;;11.10;51.30;;;;;;5011753;28;20114;-49
2023/05/18 01:14:31;;;;;;;3.55;2.17;;;11.10;51.30;;;;;;5015694;28;20072;-50
2023/05/18 01:17:18;;;;;;;5.50;2.13;;;11.10;52.10;;;;;;5039424;28;20076;-51
2023/05/18 01:19:53;;;;;;;3.00;2.22;;;11.10;52.20;;;;;;4985794;28;20780;-50
2023/05/18 01:22:55;;;;;;;6.05;2.20;;;11.00;51.70;;;;;;5020207;28;20494;-49
2023/05/18 01:26:11;;;;;;;4.45;2.33;;;11.00;52.20;;;;;;5046295;28;20510;-49
2023/05/18 01:28:41;;;;;;;3.13;2.17;;;10.90;52.10;;;;;;4984712;28;20042;-47
2023/05/18 01:31:10;;;;;;;4.63;2.20;;;10.80;51.20;;;;;;5020177;28;20120;-48
2023/05/18 01:33:36;;;;;;;3.55;2.60;;;10.90;51.60;;;;;;5024241;28;20552;-48
2023/05/18 01:36:04;;;;;;;6.13;2.45;;;10.80;51.50;;;;;;5045120;28;20095;-48
2023/05/18 01:38:31;;;;;;;3.55;2.45;;;10.80;51.70;;;;;;5040397;28;20499;-47
2023/05/18 01:41:22;;;;;;;4.22;2.53;;;10.70;51.80;;;;;;5031927;28;20037;-50
2023/05/18 01:44:14;;;;;;;4.00;3.03;;;10.70;52.90;;;;;;5023762;28;20075;-50
2023/05/18 01:47:11;;;;;;;4.53;2.90;;;10.70;52.60;;;;;;5033218;28;20040;-48
2023/05/18 01:49:50;;;;;;;4.93;2.53;;;10.70;53.00;;;;;;5052502;28;20136;-52
2023/05/18 01:52:55;;;;;;;4.60;2.60;;;10.70;52.30;;;;;;5051075;28;20040;-47
2023/05/18 01:55:24;;;;;;;4.28;3.20;;;10.70;53.10;;;;;;5023273;28;20053;-51
2023/05/18 01:57:52;;;;;;;3.00;2.60;;;10.60;52.00;;;;;;5032528;28;20072;-49
2023/05/18 02:00:22;;;;;;;3.10;2.20;;;10.60;52.00;;;;;;5015304;28;20080;-47
2023/05/18 02:02:49;;;;;;;3.85;2.83;;;10.60;52.10;;;;;;5041126;28;20067;-49
2023/05/18 02:05:19;;;;;;;4.70;2.58;;;10.50;52.10;;;;;;5049328;28;20026;-48
2023/05/18 02:07:48;;;;;;;4.20;2.22;;;10.50;52.20;;;;;;5017810;28;20064;-47
2023/05/18 02:10:15;;;;;;;8.05;3.13;;;10.50;52.20;;;;;;5033480;28;20100;-52
2023/05/18 02:12:42;;;;;;;6.38;2.78;;;10.50;52.30;;;;;;5016309;28;20040;-52
2023/05/18 02:15:12;;;;;;;3.67;2.40;;;10.40;52.40;;;;;;5048618;28;20554;-48
2023/05/18 02:17:39;;;;;;;5.22;2.85;;;10.40;52.50;;;;;;5034149;28;20050;-48
2023/05/18 02:20:06;;;;;;;4.25;2.30;;;10.40;52.50;;;;;;5031081;28;20041;-48
2023/05/18 02:22:34;;;;;;;5.20;2.55;;;10.40;53.20;;;;;;5013460;28;20041;-48
2023/05/18 02:25:03;;;;;;;4.40;2.83;;;10.40;52.60;;;;;;5018840;28;20034;-49
2023/05/18 02:27:33;;;;;;;7.32;2.58;;;10.40;52.70;;;;;;5043186;28;20037;-52
2023/05/18 02:30:03;;;;;;;6.97;3.00;;;10.30;52.70;;;;;;5036686;28;20414;-48
2023/05/18 02:32:31;;;;;;;4.03;2.75;;;10.30;52.70;;;;;;5013392;28;20111;-47
2023/05/18 02:35:02;;;;;;;6.00;2.75;;;10.30;52.70;;;;;;5024906;28;20060;-49
2023/05/18 02:37:33;;;;;;;4.67;2.70;;;10.30;52.90;;;;;;5037508;28;20049;-49
2023/05/18 02:40:03;;;;;;;3.92;2.38;;;10.30;52.80;;;;;;5013632;28;20041;-48
2023/05/18 02:42:32;;;;;;;3.88;2.50;;;10.20;52.80;;;;;;5027126;28;20405;-47
2023/05/18 02:45:01;;;;;;;3.53;2.20;;;10.20;52.80;;;;;;5049548;28;20455;-48
2023/05/18 02:47:29;;;;;;;5.30;2.28;;;10.20;52.90;;;;;;5046624;28;20044;-51
2023/05/18 02:49:55;;;;;;;4.18;2.75;;;10.20;53.00;;;;;;5023495;28;20037;-49
2023/05/18 02:52:23;;;;;;;5.15;3.08;;;10.20;53.10;;;;;;5021016;28;20556;-47
2023/05/18 02:54:49;;;;;;;3.55;2.38;;;10.20;53.00;;;;;;5036247;28;20502;-47
2023/05/18 02:57:25;;;;;;;5.28;3.10;;;10.20;53.10;;;;;;5029217;28;20080;-47
2023/05/18 02:59:59;;;;;;;7.28;3.28;;;10.10;53.10;;;;;;5013207;28;20050;-48
2023/05/18 03:02:26;;;;;;;5.80;3.00;;;10.10;53.20;;;;;;5012328;28;20037;-48
2023/05/18 03:04:56;;;;;;;6.20;3.13;;;10.10;53.20;;;;;;5015287;28;20043;-49
2023/05/18 03:07:27;;;;;;;5.15;2.70;;;10.10;53.50;;;;;;5045185;28;20520;-51
2023/05/18 03:09:55;;;;;;;3.25;2.28;;;10.10;53.30;;;;;;5014924;28;20041;-47
2023/05/18 03:12:22;;;;;;;2.88;2.60;;;10.00;53.10;;;;;;5029492;28;20037;-49
2023/05/18 03:14:49;;;;;;;4.45;2.85;;;10.00;53.20;;;;;;5017185;28;20125;-47
2023/05/18 03:17:16;;;;;;;3.40;2.30;;;10.00;53.20;;;;;;5047219;28;20128;-48
2023/05/18 03:19:44;;;;;;;4.80;2.50;;;10.00;53.20;;;;;;5024352;28;20030;-51
2023/05/18 03:22:12;;;;;;;3.70;2.50;;;9.90;53.20;;;;;;5028069;28;20040;-47
2023/05/18 03:24:42;;;;;;;3.65;2.83;;;9.90;53.30;;;;;;5030985;28;20045;-48
2023/05/18 03:27:15;;;;;;;4.25;2.85;;;9.90;53.40;;;;;;5033337;28;20049;-47
2023/05/18 03:29:47;;;;;;;4.47;2.72;;;9.80;53.30;;;;;;5012413;28;20048;-48
2023/05/18 03:32:15;;;;;;;3.63;2.75;;;9.80;53.30;;;;;;5012590;28;20103;-47
2023/05/18 03:34:43;;;;;;;4.38;2.75;;;9.80;54.00;;;;;;5019440;28;20041;-51
2023/05/18 03:37:10;;;;;;;3.72;2.92;;;9.80;53.50;;;;;;5026119;28;20072;-50
2023/05/18 03:39:38;;;;;;;3.08;2.85;;;9.80;53.50;;;;;;5032563;28;20413;-47
2023/05/18 03:42:05;;;;;;;3.83;2.78;;;9.70;53.60;;;;;;5016750;28;20124;-51
2023/05/18 03:44:31;;;;;;;5.18;2.85;;;9.70;53.80;;;;;;5030098;28;20039;-52
2023/05/18 03:46:58;;;;;;;5.90;3.33;;;9.70;54.00;;;;;;5032118;28;20045;-47
2023/05/18 03:49:25;;;;;;;6.25;3.45;;;9.70;54.10;;;;;;5030325;28;20044;-52
2023/05/18 03:51:53;;;;;;;6.90;3.17;;;9.70;54.30;;;;;;5022341;28;20060;-47
2023/05/18 03:54:20;;;;;;;4.90;3.10;;;9.60;54.30;;;;;;5022220;28;20072;-48
2023/05/18 03:56:47;;;;;;;5.93;3.30;;;9.70;54.40;;;;;;5049492;28;20497;-47
2023/05/18 03:59:13;;;;;;;6.15;3.03;;;9.60;54.40;;;;;;5027613;28;20072;-51
2023/05/18 04:01:41;;;;;;;4.72;2.92;;;9.70;54.50;;;;;;5027691;28;20041;-48
2023/05/18 04:04:08;;;;;;;6.55;3.53;;;9.70;55.20;;;;;;5012592;28;20041;-51
2023/05/18 04:06:34;;;;;;;4.85;2.72;;;9.60;54.60;;;;;;5045547;28;20060;-48
2023/05/18 04:09:03;;;;;;;4.35;3.10;;;9.70;54.70;;;;;;5032759;28;20098;-49
2023/05/18 04:11:30;;;;;;;3.60;2.90;;;9.70;54.60;;;;;;5013085;28;20424;-49
2023/05/18 04:14:00;;;;;;;5.32;3.00;;;9.60;54.80;;;;;;5024875;28;20048;-48
2023/05/18 04:16:27;;;;;;;3.70;3.10;;;9.60;54.90;;;;;;5043734;28;20038;-48
2023/05/18 04:18:54;;;;;;;5.43;3.22;;;9.70;55.00;;;;;;5049404;28;20041;-48
2023/05/18 04:21:21;;;;;;;4.65;3.17;;;9.70;55.20;;;;;;5045202;28;20056;-48
2023/05/18 04:23:48;;;;;;;4.85;3.33;;;9.70;55.40;;;;;;5049129;28;20124;-52
2023/05/18 04:26:18;;;;;;;6.18;3.25;;;9.70;55.60;;;;;;5028894;28;20091;-48
2023/05/18 04:28:48;;;;;;;6.97;3.38;;;9.70;55.60;;;;;;5029020;28;20044;-49
2023/05/18 04:31:16;;;;;;;3.88;3.10;;;9.70;55.80;;;;;;5019380;28;20103;-52
2023/05/18 04:33:45;;;;;;;3.47;2.95;;;9.80;55.90;;;;;;5025762;28;20037;-51
2023/05/18 04:36:13;;;;;;;6.30;3.85;;;9.80;56.00;;;;;;5047152;28;20095;-51
2023/05/18 04:38:40;;;;;;;5.25;4.35;;;9.90;56.10;;;;;;5039474;28;20088;-47
2023/05/18 04:41:07;;;;;;;6.38;3.75;;;9.90;56.20;;;;;;5029079;28;20029;-51
2023/05/18 04:43:35;;;;;;;9.70;4.00;;;9.90;56.40;;;;;;5046155;28;20088;-50
2023/05/18 04:46:05;;;;;;;7.07;4.03;;;10.00;56.50;;;;;;5030639;28;20041;-46
2023/05/18 04:48:33;;;;;;;8.45;3.47;;;10.00;56.70;;;;;;5022497;28;20465;-48
2023/05/18 04:51:05;;;;;;;4.40;3.83;;;10.10;56.80;;;;;;5021369;28;20050;-48
2023/05/18 04:53:37;;;;;;;3.65;3.30;;;10.10;57.00;;;;;;5040530;28;20486;-48
2023/05/18 04:56:07;;;;;;;;;;;10.20;57.20;;;;;;5011285;28;20046;-49
2023/05/18 04:58:34;;;;;;;8.35;3.67;;;10.30;57.60;;;;;;5040937;28;19924;-50
2023/05/18 05:01:01;;;;;;;6.95;4.25;;;10.40;56.50;;;;;;5042923;28;20049;-49
2023/05/18 05:03:28;;;;;;;7.43;4.30;;;10.40;56.80;;;;;;5010976;28;20041;-49
2023/05/18 05:05:57;;;;;;;9.48;4.57;;;10.50;57.10;;;;;;5021573;28;20048;-47
2023/05/18 05:08:24;;;;;;;8.73;4.55;;;10.50;57.20;;;;;;5046801;28;20053;-51
2023/05/18 05:10:51;;;;;;;9.75;5.15;;;10.60;57.30;;;;;;5028980;28;20045;-49
2023/05/18 05:13:18;;;;;;;9.18;4.30;;;10.70;57.30;;;;;;5029088;28;20049;-49
2023/05/18 05:15:48;;;;;;;9.23;4.93;;;10.80;58.00;;;;;;5039883;28;20070;-47
2023/05/18 05:18:15;;;;;;;8.63;5.47;;;10.90;57.60;;;;;;5038249;28;20048;-48
2023/05/18 05:20:42;;;;;;;8.43;5.25;;;11.00;57.20;;;;;;5019474;28;20128;-47
2023/05/18 05:23:13;;;;;;;9.93;5.25;;;11.00;57.00;;;;;;5011514;28;20052;-47
2023/05/18 05:25:42;;;;;;;9.35;5.15;;;11.10;57.10;;;;;;5029016;28;20037;-48
2023/05/18 05:28:09;;;;;;;7.35;5.20;;;11.20;57.50;;;;;;5024629;28;20096;-48
2023/05/18 05:30:36;;;;;;;9.73;5.22;;;11.30;56.70;;;;;;5012119;28;20044;-52
2023/05/18 05:33:03;;;;;;;9.60;5.63;;;11.40;56.60;;;;;;5031523;28;20063;-47
2023/05/18 05:35:30;;;;;;;7.10;4.90;;;11.50;56.60;;;;;;5046676;28;20509;-48
2023/05/18 05:37:59;;;;;;;13.50;6.35;;;11.50;56.40;;;;;;5048929;28;20053;-49
2023/05/18 05:40:26;;;;;;;10.68;5.30;;;11.60;56.40;;;;;;5027890;28;20099;-52
2023/05/18 05:42:56;;;;;;;11.13;4.93;;;11.70;56.40;;;;;;5028446;28;20525;-51
2023/05/18 05:45:23;;;;;;;8.73;4.55;;;11.70;56.40;;;;;;5031435;28;20108;-47
2023/05/18 05:47:54;;;;;;;8.33;4.43;;;11.80;56.00;;;;;;5021202;28;20127;-48
2023/05/18 05:50:22;;;;;;;10.07;5.25;;;11.90;55.80;;;;;;5046945;28;20327;-47
2023/05/18 05:52:52;;;;;;;10.07;5.07;;;11.90;55.80;;;;;;5020586;28;20046;-51
2023/05/18 05:55:21;;;;;;;11.55;5.60;;;12.00;55.50;;;;;;5021986;28;20140;-48
2023/05/18 05:57:48;;;;;;;8.93;5.00;;;12.10;55.80;;;;;;5022925;28;20175;-49
2023/05/18 06:00:17;;;;;;;9.20;4.82;;;12.10;55.30;;;;;;5023505;28;20053;-48
2023/05/18 06:02:47;;;;;;;9.73;5.75;;;12.20;55.30;;;;;;5045025;28;20041;-52
2023/05/18 06:05:18;;;;;;;8.25;4.75;;;12.20;55.10;;;;;;5011652;28;20049;-50
2023/05/18 06:07:45;;;;;;;10.52;4.75;;;12.30;55.10;;;;;;5012336;28;20075;-48
2023/05/18 06:10:13;;;;;;;6.07;3.78;;;12.40;55.10;;;;;;5042587;28;20056;-48
2023/05/18 06:12:40;;;;;;;9.63;5.35;;;12.40;55.00;;;;;;5039165;28;20073;-50
2023/05/18 06:15:07;;;;;;;8.43;4.47;;;12.50;55.00;;;;;;5018566;28;20148;-49
2023/05/18 06:17:37;;;;;;;7.70;4.55;;;12.50;54.90;;;;;;5045953;28;20041;-50
2023/05/18 06:20:08;;;;;;;7.03;5.20;;;12.60;54.80;;;;;;5031250;28;20037;-50
2023/05/18 06:22:35;;;;;;;10.00;5.22;;;12.70;54.90;;;;;;5037328;28;20045;-51
2023/05/18 06:25:21;;;;;;;7.70;5.00;;;12.80;54.50;;;;;;5028838;28;20136;-48
2023/05/18 06:28:09;;;;;;;5.70;4.15;;;12.90;54.30;;;;;;5025312;28;20127;-47
2023/05/18 06:30:46;;;;;;;6.28;4.22;;;12.90;54.00;;;;;;5021063;28;20571;-49
2023/05/18 06:33:20;;;;;;;9.13;4.43;;;13.00;54.00;;;;;;5029823;28;20065;-49
2023/05/18 06:35:46;;;;;;;11.07;5.38;;;13.00;54.10;;;;;;5049720;28;20044;-49
2023/05/18 06:38:13;;;;;;;7.90;4.47;;;13.10;53.90;;;;;;5025191;28;20063;-48
2023/05/18 06:40:40;;;;;;;7.75;4.38;;;13.10;53.90;;;;;;5049169;28;20090;-48
2023/05/18 06:43:10;;;;;;;6.93;4.20;;;13.20;53.80;;;;;;5019110;28;20037;-47
2023/05/18 06:45:47;;;;;;;8.25;4.90;;;13.30;53.40;;;;;;5029112;28;20037;-50
2023/05/18 06:48:38;;;;;;;8.73;5.15;;;13.30;53.50;;;;;;5032476;28;20094;-47
2023/05/18 06:51:07;;;;;;;9.45;5.25;;;13.30;53.20;;;;;;5028663;28;20049;-50
2023/05/18 06:53:34;;;;;;;9.90;5.32;;;13.40;53.00;;;;;;5018007;28;20035;-47
2023/05/18 06:56:03;;;;;;;11.23;5.28;;;13.40;53.10;;;;;;5038937;28;20037;-51
2023/05/18 06:58:30;;;;;;;8.63;4.68;;;13.40;53.10;;;;;;5023563;28;20045;-52
2023/05/18 07:01:03;;;;;;;6.65;4.97;;;13.50;53.00;;;;;;5019213;28;20430;-50
2023/05/18 07:03:31;;;;;;;8.23;4.80;;;13.50;53.10;;;;;;5033353;28;20144;-48
2023/05/18 07:05:58;;;;;;;8.02;5.53;;;13.50;53.00;;;;;;5049198;28;20060;-47
2023/05/18 07:08:25;;;;;;;10.38;5.15;;;13.60;53.20;;;;;;5040403;28;20584;-47
2023/05/18 07:10:56;;;;;;;8.77;4.70;;;13.60;53.30;;;;;;5034462;28;20068;-47
2023/05/18 07:13:24;;;;;;;9.73;5.63;;;13.60;53.10;;;;;;5051115;28;20083;-51
2023/05/18 07:15:53;;;;;;;11.73;5.80;;;13.70;52.90;;;;;;5049604;28;20067;-52
2023/05/18 07:18:20;;;;;;;11.02;5.18;;;13.70;53.00;;;;;;5050376;28;20456;-51
2023/05/18 07:20:47;;;;;;;11.95;5.20;;;13.70;52.90;;;;;;5030347;28;20033;-48
2023/05/18 07:23:13;;;;;;;11.90;6.07;;;13.80;52.70;;;;;;5031224;28;20049;-50
2023/05/18 07:25:40;;;;;;;11.40;5.05;;;13.80;52.60;;;;;;5047727;28;20128;-50
2023/05/18 07:28:07;;;;;;;8.80;5.78;;;13.90;52.70;;;;;;5045066;28;20080;-52
2023/05/18 07:30:34;;;;;;;6.60;4.30;;;13.90;52.60;;;;;;5030091;28;20077;-51
2023/05/18 07:33:00;;;;;;;9.57;5.15;;;13.90;52.50;;;;;;5041431;28;20080;-48
2023/05/18 07:35:27;;;;;;;10.15;5.47;;;14.00;52.50;;;;;;5049499;28;20493;-49
2023/05/18 07:37:56;;;;;;;5.70;4.65;;;14.00;52.50;;;;;;5030066;28;20045;-49
2023/05/18 07:40:22;;;;;;;7.53;5.25;;;14.10;52.60;;;;;;5030145;28;20045;-48
2023/05/18 07:42:49;;;;;;;8.05;4.70;;;14.10;52.10;;;;;;5042163;28;20075;-47
2023/05/18 07:45:16;;;;;;;8.10;5.90;;;14.20;52.40;;;;;;5050182;28;20072;-48
2023/05/18 07:47:43;;;;;;;8.90;5.05;;;14.20;52.80;;;;;;5047960;28;20106;-49
2023/05/18 07:50:10;;;;;;;8.93;4.78;;;14.30;52.70;;;;;;5036364;28;20072;-48
2023/05/18 07:52:36;;;;;;;8.38;5.47;;;14.30;52.50;;;;;;5040933;28;20048;-48
2023/05/18 07:55:04;;;;;;;7.30;4.70;;;14.30;52.10;;;;;;5037623;28;20607;-55
2023/05/18 07:57:30;;;;;;;7.85;4.72;;;14.40;51.90;;;;;;5048903;28;20067;-50
2023/05/18 07:59:57;;;;;;;10.00;5.63;;;14.40;51.80;;;;;;5042384;28;20116;-48
2023/05/18 08:02:26;;;;;;;7.38;4.50;;;14.40;52.10;;;;;;5050682;28;20076;-48
2023/05/18 08:04:57;;;;;;;9.82;4.95;;;14.50;51.90;;;;;;5048096;28;20033;-52
2023/05/18 08:07:28;;;;;;;6.50;4.72;;;14.50;51.70;;;;;;5046007;28;20132;-49
2023/05/18 08:09:59;;;;;;;5.97;4.05;;;14.60;51.40;;;;;;5037975;28;20047;-52
2023/05/18 08:12:26;;;;;;;6.40;4.15;;;14.60;51.40;;;;;;5030539;28;20124;-48
2023/05/18 08:15:00;;;;;;;6.65;4.15;;;14.60;51.30;;;;;;5045655;28;20489;-47
2023/05/18 08:17:28;;;;;;;7.90;4.18;;;14.60;51.10;;;;;;5045928;28;20045;-48
2023/05/18 08:19:58;;;;;;;11.38;4.97;;;14.70;51.10;;;;;;5036694;28;20040;-52
2023/05/18 08:22:25;;;;;;;6.63;4.47;;;14.70;50.50;;;;;;5030574;28;20100;-48
2023/05/18 08:24:55;;;;;;;5.97;3.60;;;14.80;50.40;;;;;;5040650;28;20037;-47
2023/05/18 08:27:22;;;;;;;6.95;3.60;;;14.80;50.30;;;;;;5048605;28;20795;-50
2023/05/18 08:29:52;;;;;;;7.20;4.72;;;14.80;50.40;;;;;;5047369;28;20581;-48
2023/05/18 08:32:18;;;;;;;8.55;4.03;;;14.80;50.20;;;;;;5036428;28;20095;-48
2023/05/18 08:34:45;;;;;;;6.72;4.32;;;14.90;50.20;;;;;;5047872;28;20647;-52
2023/05/18 08:37:12;;;;;;;7.20;3.85;;;14.90;49.70;;;;;;5038108;28;20049;-51
2023/05/18 08:39:39;;;;;;;7.75;3.67;;;14.90;49.20;;;;;;5044303;28;20120;-48
2023/05/18 08:42:20;;;;;;;6.80;4.15;;;14.90;49.70;;;;;;5043720;28;20124;-50
2023/05/18 08:45:06;;;;;;;7.78;4.32;;;15.00;48.90;;;;;;5038629;28;20572;-49
2023/05/18 08:47:35;;;;;;;5.45;4.15;;;15.00;48.80;;;;;;5035865;28;20041;-48
2023/05/18 08:50:03;;;;;;;5.18;3.63;;;15.00;49.20;;;;;;5042981;28;20125;-48
2023/05/18 08:52:38;;;;;;;7.50;3.63;;;15.10;49.10;;;;;;5030201;28;20041;-51
2023/05/18 08:55:06;;;;;;;11.23;4.68;;;15.10;48.90;;;;;;5040486;28;20041;-50
2023/05/18 08:57:37;;;;;;;7.53;3.67;;;15.20;48.50;;;;;;5045115;28;20048;-52
2023/05/18 09:00:06;;;;;;;8.45;3.80;;;15.20;48.30;;;;;;5030434;28;20045;-47
2023/05/18 09:02:33;;;;;;;6.88;4.35;;;15.30;48.60;;;;;;5044781;28;20045;-51
2023/05/18 09:05:00;;;;;;;7.90;4.70;;;15.40;48.20;;;;;;5035955;28;20049;-50
2023/05/18 09:07:28;;;;;;;8.15;4.70;;;15.50;48.50;;;;;;5036688;28;20120;-51
2023/05/18 09:09:56;;;;;;;6.60;3.78;;;15.70;48.00;;;;;;5050493;28;20591;-52
2023/05/18 09:12:24;;;;;;;7.35;3.95;;;15.80;47.60;;;;;;5051256;28;20131;-51
2023/05/18 09:14:52;;;;;;;8.50;3.92;;;15.80;47.20;;;;;;5041165;28;20049;-47
2023/05/18 09:17:21;;;;;;;6.90;3.80;;;15.90;47.20;;;;;;5045037;28;20051;-51
2023/05/18 09:19:48;;;;;;;16.45;4.88;;;16.00;46.80;;;;;;5050116;28;20048;-49
2023/05/18 09:22:15;;;;;;;4.40;3.85;;;16.00;46.60;;;;;;5045932;28;20516;-52
2023/05/18 09:24:42;;;;;;;6.82;4.40;;;16.00;46.40;;;;;;5047930;28;20039;-46
2023/05/18 09:27:09;;;;;;;6.53;4.35;;;16.10;46.20;;;;;;5040469;28;20465;-48
2023/05/18 09:29:53;;;;;;;6.57;4.28;;;16.10;46.60;;;;;;5031682;28;20071;-50
2023/05/18 09:32:21;;;;;;;6.63;4.57;;;16.10;45.90;;;;;;5048607;28;20120;-51
2023/05/18 09:34:48;;;;;;;5.53;3.97;;;16.10;45.70;;;;;;5046221;28;20064;-50
2023/05/18 09:37:16;;;;;;;6.25;3.58;;;16.00;46.20;;;;;;5048382;28;20039;-48
2023/05/18 09:39:44;;;;;;;8.00;4.75;;;16.10;46.20;;;;;;5037589;28;20124;-51
2023/05/18 09:42:11;;;;;;;7.50;4.97;;;16.10;46.60;;;;;;5032771;28;20080;-47
2023/05/18 09:44:37;;;;;;;8.35;4.80;;;16.10;46.80;;;;;;5049127;28;20120;-48
2023/05/18 09:47:09;;;;;;;7.60;5.03;;;16.20;46.40;;;;;;5048495;28;20052;-49
2023/05/18 09:49:36;;;;;;;9.33;5.13;;;16.20;46.10;;;;;;5029772;28;20049;-47
2023/05/18 09:52:08;;;;;;;9.52;5.38;;;16.20;46.20;;;;;;5046685;28;20077;-48
2023/05/18 09:54:35;;;;;;;5.90;4.73;;;16.30;45.70;;;;;;5043526;28;20421;-51
2023/05/18 09:57:04;;;;;;;4.68;3.83;;;16.30;45.50;;;;;;5049979;28;20049;-50
2023/05/18 09:59:36;;;;;;;7.13;3.83;;;16.30;45.80;;;;;;5043186;28;20120;-49
2023/05/18 10:02:08;;;;;;;6.60;3.72;;;16.40;47.00;;;;;;5043788;28;20049;-50
2023/05/18 10:04:42;;;;;;;7.50;4.47;;;16.50;45.50;;;;;;5045230;28;20095;-47
2023/05/18 10:07:13;;;;;;;7.63;4.13;;;16.60;45.40;;;;;;5041606;28;20096;-49
2023/05/18 10:09:41;;;;;;;7.82;4.38;;;16.60;45.30;;;;;;5046219;28;20072;-48
2023/05/18 10:12:13;;;;;;;6.03;3.70;;;16.70;45.70;;;;;;5047293;28;20070;-46
2023/05/18 10:14:44;;;;;;;7.87;3.87;;;16.70;44.40;;;;;;5042432;28;20108;-47
2023/05/18 10:17:15;;;;;;;6.53;3.80;;;16.70;44.40;;;;;;5047848;28;20049;-47
2023/05/18 10:19:44;;;;;;;6.10;3.80;;;16.80;44.90;;;;;;5047123;28;20600;-48
2023/05/18 10:22:15;;;;;;;10.10;4.40;;;16.80;44.20;;;;;;5044358;28;20041;-47
2023/05/18 10:24:45;;;;;;;5.78;4.13;;;16.80;44.60;;;;;;5027750;28;20038;-48
2023/05/18 10:27:16;;;;;;;7.07;4.20;;;16.80;44.20;;;;;;5048274;28;20102;-51
2023/05/18 10:29:45;;;;;;;8.73;4.45;;;16.90;44.40;;;;;;5045956;28;20053;-47
2023/05/18 10:32:15;;;;;;;6.10;4.38;;;16.90;44.50;;;;;;5046281;28;20546;-50
2023/05/18 10:34:43;;;;;;;9.07;3.70;;;17.00;44.10;;;;;;5041849;28;20044;-49
2023/05/18 10:37:11;;;;;;;8.98;3.70;;;17.00;44.50;;;;;;5047421;28;20539;-47
2023/05/18 10:39:41;;;;;;;6.30;3.78;;;17.00;44.60;;;;;;5047553;28;20037;-51
2023/05/18 10:42:09;;;;;;;6.63;4.10;;;17.00;44.40;;;;;;5041577;28;20048;-48
2023/05/18 10:44:38;;;;;;;7.93;4.30;;;17.10;44.40;;;;;;5041364;28;20124;-49
2023/05/18 10:47:10;;;;;;;9.23;4.50;;;17.10;43.90;;;;;;5046556;28;20079;-49
2023/05/18 10:49:38;;;;;;;5.03;3.50;;;17.20;44.00;;;;;;5041228;28;20041;-49
2023/05/18 10:52:06;;;;;;;9.50;4.60;;;17.20;43.90;;;;;;5047126;28;20120;-47
2023/05/18 10:54:32;;;;;;;8.20;4.55;;;17.20;43.70;;;;;;5041248;28;20106;-48
2023/05/18 10:57:01;;;;;;;5.07;3.72;;;17.30;44.00;;;;;;5047165;28;20395;-47
2023/05/18 10:59:28;;;;;;;8.27;4.97;;;17.30;44.50;;;;;;5041839;28;20124;-50
2023/05/18 11:01:56;;;;;;;11.80;4.28;;;17.30;44.20;;;;;;5030657;28;20041;-49
2023/05/18 11:04:28;;;;;;;8.57;4.60;;;17.40;44.10;;;;;;5050139;28;20045;-52
2023/05/18 11:06:59;;;;;;;9.90;6.00;;;17.40;43.40;;;;;;5048033;28;21074;-48
2023/05/18 11:09:28;;;;;;;9.02;4.53;;;17.50;44.00;;;;;;5050256;28;20586;-52
2023/05/18 11:11:59;;;;;;;4.38;3.97;;;17.50;43.20;;;;;;5049868;28;20470;-50
2023/05/18 11:14:28;;;;;;;7.00;4.32;;;17.50;43.70;;;;;;5048153;28;20068;-49
2023/05/18 11:17:16;;;;;;;7.55;5.03;;;17.50;43.50;;;;;;5031265;28;20083;-52
2023/05/18 11:20:07;;;;;;;9.90;4.50;;;17.50;43.30;;;;;;5030098;28;20136;-49
2023/05/18 11:22:58;;;;;;;10.40;4.82;;;17.50;43.30;;;;;;5041673;28;20078;-49
2023/05/18 11:25:30;;;;;;;6.47;3.97;;;17.60;43.70;;;;;;5045219;28;20072;-50
2023/05/18 11:28:06;;;;;;;7.43;5.35;;;17.60;43.60;;;;;;5047969;28;20030;-51
2023/05/18 11:30:33;;;;;;;5.45;3.60;;;17.70;43.90;;;;;;5011087;28;20303;-50
2023/05/18 11:33:11;;;;;;;9.40;4.80;;;17.80;43.70;;;;;;5038914;28;20064;-50
2023/05/18 11:36:14;;;;;;;6.40;4.05;;;17.80;43.00;;;;;;5046571;28;20198;-49
2023/05/18 11:39:01;;;;;;;7.20;3.75;;;18.00;43.30;;;;;;5021590;28;20053;-49
2023/05/18 11:41:38;;;;;;;5.93;3.85;;;18.10;43.70;;;;;;5040428;28;20036;-49
2023/05/18 11:44:13;;;;;;;5.93;4.47;;;18.20;43.50;;;;;;5041997;28;20064;-52
2023/05/18 11:47:02;;;;;;;8.35;4.13;;;18.30;43.50;;;;;;5029967;28;20048;-52
2023/05/18 11:49:30;;;;;;;7.28;4.20;;;18.50;43.30;;;;;;5045997;28;20061;-52
2023/05/18 11:52:12;;;;;;;8.32;4.03;;;18.60;42.30;;;;;;5041195;28;20072;-51
2023/05/18 11:54:48;;;;;;;8.27;3.72;;;18.70;42.90;;;;;;5037358;28;20099;-51
2023/05/18 11:57:16;;;;;;;5.28;4.15;;;18.70;43.00;;;;;;5049747;28;20090;-51
2023/05/18 11:59:46;;;;;;;7.88;4.13;;;18.80;42.30;;;;;;5038246;28;20049;-52
2023/05/18 12:02:20;;;;;;;4.70;3.42;;;18.90;42.20;;;;;;5030127;28;20128;-51
2023/05/18 12:04:54;;;;;;;7.53;3.83;;;19.00;42.40;;;;;;5044734;28;20056;-49
2023/05/18 12:07:22;;;;;;;6.53;4.00;;;19.10;41.70;;;;;;5044256;28;20038;-51
2023/05/18 12:09:48;;;;;;;9.13;5.25;;;19.10;41.90;;;;;;5029987;28;20037;-52
2023/05/18 12:12:18;;;;;;;6.93;4.45;;;19.20;41.10;;;;;;5037008;28;20037;-49
2023/05/18 12:14:53;;;;;;;16.63;5.07;;;19.20;41.20;;;;;;5047549;28;20120;-50
2023/05/18 12:17:21;;;;;;;8.38;4.30;;;19.20;41.00;;;;;;5030134;28;20045;-48
2023/05/18 12:19:48;;;;;;;5.97;4.15;;;19.30;40.80;;;;;;5040301;28;20116;-47
2023/05/18 12:22:15;;;;;;;7.22;4.13;;;19.40;41.10;;;;;;5048805;28;20112;-52
2023/05/18 12:24:43;;;;;;;8.88;4.90;;;19.50;41.50;;;;;;5044955;28;20116;-49
2023/05/18 12:27:11;;;;;;;8.25;5.35;;;19.50;40.80;;;;;;5049221;28;20094;-50
2023/05/18 12:29:39;;;;;;;8.70;5.07;;;19.60;40.20;;;;;;5033927;28;20045;-51
2023/05/18 12:32:09;;;;;;;7.75;3.65;;;19.60;40.20;;;;;;5045269;28;20120;-52
2023/05/18 12:34:36;;;;;;;6.57;4.05;;;19.60;40.30;;;;;;5045418;28;20136;-48
2023/05/18 12:37:04;;;;;;;7.07;3.50;;;19.60;40.90;;;;;;5044989;28;20048;-48
2023/05/18 12:39:35;;;;;;;5.60;3.80;;;19.70;41.00;;;;;;5045165;28;20036;-51
2023/05/18 12:42:13;;;;;;;5.82;3.90;;;19.70;40.10;;;;;;5046978;28;20067;-48
2023/05/18 12:44:44;;;;;;;7.57;3.85;;;19.90;40.30;;;;;;5047749;28;20087;-49
2023/05/18 12:47:12;;;;;;;4.63;3.88;;;20.00;40.30;;;;;;5037889;28;20068;-52
2023/05/18 12:49:41;;;;;;;5.93;3.67;;;20.10;40.70;;;;;;5041466;28;20048;-49
2023/05/18 12:52:10;;;;;;;6.03;3.65;;;20.20;40.70;;;;;;5045724;28;20033;-49
2023/05/18 12:54:54;;;;;;;7.65;4.03;;;20.30;40.50;;;;;;5040558;28;20060;-47
2023/05/18 12:57:25;;;;;;;5.72;4.07;;;20.40;40.00;;;;;;5044236;28;20120;-48
2023/05/18 12:59:59;;;;;;;8.15;3.65;;;20.60;40.00;;;;;;5049857;28;20060;-51
2023/05/18 13:02:34;;;;;;;11.75;4.45;;;20.70;39.70;;;;;;5014745;28;20128;-51